createdAt,value
2017-08-21T00:00:26.784Z,16.40
2017-08-21T00:02:54.315Z,16.40
2017-08-21T00:05:21.838Z,16.40
2017-08-21T00:07:50.509Z,16.50
2017-08-21T00:10:18.014Z,16.50
2017-08-21T00:12:45.526Z,16.50
2017-08-21T00:15:13.360Z,16.60
2017-08-21T00:17:40.925Z,16.60
2017-08-21T00:20:08.459Z,16.70
2017-08-21T00:22:36.440Z,16.70
2017-08-21T00:25:04.054Z,16.80
2017-08-21T00:27:32.365Z,16.90
2017-08-21T00:30:00.266Z,16.90
2017-08-21T00:32:27.795Z,16.90
2017-08-21T00:34:55.313Z,17.00
2017-08-21T00:37:23.177Z,17.10
2017-08-21T00:39:50.701Z,17.10
2017-08-21T00:42:18.211Z,17.10
2017-08-21T00:44:46.145Z,17.10
2017-08-21T00:47:13.664Z,17.20
2017-08-21T00:49:41.188Z,17.10
2017-08-21T00:52:09.649Z,17.10
2017-08-21T00:54:37.172Z,17.10
2017-08-21T00:57:04.694Z,17.10
2017-08-21T00:59:32.537Z,17.10
2017-08-21T01:02:01.061Z,17.10
2017-08-21T01:04:28.610Z,17.10
2017-08-21T01:06:56.238Z,17.10
2017-08-21T01:09:23.755Z,17.10
2017-08-21T01:11:51.286Z,17.20
2017-08-21T01:14:19.115Z,17.20
2017-08-21T01:16:46.656Z,17.10
2017-08-21T01:19:14.201Z,17.20
2017-08-21T01:21:42.032Z,17.20
2017-08-21T01:24:09.541Z,17.20
2017-08-21T01:26:37.074Z,17.20
2017-08-21T01:29:04.984Z,17.20
2017-08-21T01:31:32.545Z,17.20
2017-08-21T01:34:00.061Z,17.10
2017-08-21T01:36:28.627Z,17.10
2017-08-21T01:38:56.163Z,17.00
2017-08-21T01:41:23.779Z,17.10
2017-08-21T01:43:51.591Z,17.00
2017-08-21T01:46:19.141Z,17.00
2017-08-21T01:48:46.662Z,16.90
2017-08-21T01:51:14.483Z,16.90
2017-08-21T01:53:42.028Z,16.90
2017-08-21T01:56:09.552Z,16.80
2017-08-21T01:58:37.379Z,16.80
2017-08-21T02:01:04.937Z,16.80
2017-08-21T02:03:32.469Z,16.80
2017-08-21T02:06:00.326Z,16.70
2017-08-21T02:08:30.894Z,16.70
2017-08-21T02:10:58.439Z,16.70
2017-08-21T02:13:25.991Z,16.70
2017-08-21T02:15:53.546Z,16.70
2017-08-21T02:18:21.078Z,16.70
2017-08-21T02:20:48.636Z,16.70
2017-08-21T02:23:16.156Z,16.70
2017-08-21T02:25:43.680Z,16.80
2017-08-21T02:28:12.143Z,16.80
2017-08-21T02:30:39.675Z,16.80
2017-08-21T02:33:07.219Z,16.80
2017-08-21T02:35:34.793Z,16.80
2017-08-21T02:38:02.352Z,16.80
2017-08-21T02:40:29.893Z,16.80
2017-08-21T02:42:58.447Z,16.80
2017-08-21T02:45:26.003Z,16.80
2017-08-21T02:47:53.531Z,16.80
2017-08-21T02:50:21.869Z,16.80
2017-08-21T02:52:49.401Z,16.80
2017-08-21T02:55:16.943Z,16.80
2017-08-21T02:57:44.518Z,16.80
2017-08-21T03:00:12.067Z,16.80
2017-08-21T03:02:39.612Z,16.80
2017-08-21T03:05:07.554Z,16.70
2017-08-21T03:07:35.092Z,16.80
2017-08-21T03:10:02.631Z,16.70
2017-08-21T03:12:30.542Z,16.80
2017-08-21T03:14:58.062Z,16.70
2017-08-21T03:17:25.602Z,16.70
2017-08-21T03:19:53.502Z,16.40
2017-08-21T03:22:21.058Z,16.70
2017-08-21T03:24:48.571Z,16.70
2017-08-21T03:27:16.585Z,16.70
2017-08-21T03:29:44.159Z,16.70
2017-08-21T03:32:11.696Z,16.60
2017-08-21T03:34:39.267Z,16.60
2017-08-21T03:37:08.756Z,16.60
2017-08-21T03:39:36.275Z,16.60
2017-08-21T03:42:03.804Z,16.50
2017-08-21T03:44:31.337Z,16.50
2017-08-21T03:46:58.872Z,16.50
2017-08-21T03:49:26.465Z,16.50
2017-08-21T03:51:53.978Z,16.40
2017-08-21T03:54:21.551Z,16.50
2017-08-21T03:56:49.387Z,16.50
2017-08-21T03:59:16.918Z,16.50
2017-08-21T04:01:45.164Z,16.50
2017-08-21T04:04:13.204Z,16.60
2017-08-21T04:06:40.759Z,16.60
2017-08-21T04:09:08.300Z,16.60
2017-08-21T04:11:35.878Z,16.60
2017-08-21T04:14:03.430Z,16.70
2017-08-21T04:16:30.953Z,16.70
2017-08-21T04:18:58.530Z,16.70
2017-08-21T04:21:26.042Z,16.80
2017-08-21T04:23:53.580Z,16.80
2017-08-21T04:26:21.568Z,16.90
2017-08-21T04:28:49.107Z,16.90
2017-08-21T04:31:16.654Z,16.90
2017-08-21T04:33:44.519Z,16.90
2017-08-21T04:36:12.044Z,16.90
2017-08-21T04:38:40.373Z,17.00
2017-08-21T04:41:08.170Z,16.90
2017-08-21T04:43:35.693Z,17.00
2017-08-21T04:46:03.244Z,17.00
2017-08-21T04:48:31.124Z,17.00
2017-08-21T04:50:58.656Z,17.00
2017-08-21T04:53:26.192Z,17.00
2017-08-21T04:55:54.096Z,17.00
2017-08-21T04:58:21.635Z,17.00
2017-08-21T05:00:49.204Z,17.00
2017-08-21T05:03:17.039Z,17.00
2017-08-21T05:05:44.576Z,17.00
2017-08-21T05:08:12.094Z,17.00
2017-08-21T05:10:39.939Z,17.00
2017-08-21T05:13:07.459Z,17.10
2017-08-21T05:15:35.047Z,17.10
2017-08-21T05:18:02.876Z,17.10
2017-08-21T05:20:30.431Z,17.20
2017-08-21T05:22:57.959Z,17.30
2017-08-21T05:25:42.054Z,17.30
2017-08-21T05:28:09.610Z,17.20
2017-08-21T05:30:37.200Z,17.30
2017-08-21T05:33:04.955Z,17.30
2017-08-21T05:35:32.498Z,17.20
2017-08-21T05:38:00.074Z,17.20
2017-08-21T05:40:27.675Z,17.10
2017-08-21T05:42:55.591Z,17.10
2017-08-21T05:45:23.151Z,17.10
2017-08-21T05:47:50.673Z,17.10
2017-08-21T05:50:18.220Z,17.10
2017-08-21T05:52:45.743Z,17.10
2017-08-21T05:55:14.118Z,17.20
2017-08-21T05:57:41.630Z,17.20
2017-08-21T06:00:15.632Z,17.30
2017-08-21T06:02:43.174Z,17.30
2017-08-21T06:05:11.469Z,17.40
2017-08-21T06:07:39.016Z,17.40
2017-08-21T06:10:09.236Z,17.60
2017-08-21T06:12:37.186Z,17.60
2017-08-21T06:15:04.716Z,17.80
2017-08-21T06:17:32.253Z,17.90
2017-08-21T06:19:59.823Z,17.90
2017-08-21T06:22:27.344Z,17.90
2017-08-21T06:24:55.153Z,18.00
2017-08-21T06:27:22.686Z,18.10
2017-08-21T06:29:50.223Z,18.10
2017-08-21T06:32:20.771Z,18.00
2017-08-21T06:34:49.060Z,18.20
2017-08-21T06:37:16.650Z,18.20
2017-08-21T06:39:44.187Z,18.20
2017-08-21T06:42:11.877Z,18.30
2017-08-21T06:44:39.497Z,18.30
2017-08-21T06:47:08.350Z,18.40
2017-08-21T06:49:37.122Z,18.40
2017-08-21T06:52:04.670Z,18.40
2017-08-21T06:54:32.198Z,18.50
2017-08-21T06:56:59.758Z,18.50
2017-08-21T06:59:28.107Z,18.40
2017-08-21T07:01:55.967Z,18.40
2017-08-21T07:04:23.505Z,18.30
2017-08-21T07:06:51.020Z,18.20
2017-08-21T07:09:19.335Z,18.10
2017-08-21T07:11:47.772Z,18.10
2017-08-21T07:14:15.340Z,18.10
2017-08-21T07:16:42.869Z,18.10
2017-08-21T07:19:10.414Z,18.10
2017-08-21T07:21:37.972Z,18.20
2017-08-21T07:24:05.521Z,18.20
2017-08-21T07:26:33.413Z,18.30
2017-08-21T07:29:00.927Z,18.40
2017-08-21T07:31:28.460Z,18.50
2017-08-21T07:33:56.037Z,18.50
2017-08-21T07:36:24.331Z,18.60
2017-08-21T07:38:52.224Z,18.60
2017-08-21T07:41:19.757Z,18.70
2017-08-21T07:43:47.297Z,18.80
2017-08-21T07:46:14.872Z,19.00
2017-08-21T07:48:42.430Z,19.00
2017-08-21T07:51:10.259Z,19.10
2017-08-21T07:53:37.814Z,19.20
2017-08-21T07:56:05.323Z,19.20
2017-08-21T07:58:32.928Z,19.20
2017-08-21T08:01:00.460Z,19.40
2017-08-21T08:03:28.340Z,19.60
2017-08-21T08:05:55.918Z,19.70
2017-08-21T08:08:23.461Z,19.80
2017-08-21T08:10:51.006Z,19.70
2017-08-21T08:13:18.519Z,19.70
2017-08-21T08:15:46.089Z,19.80
2017-08-21T08:18:13.625Z,20.00
2017-08-21T08:20:41.176Z,20.00
2017-08-21T08:23:08.734Z,20.00
2017-08-21T08:25:36.295Z,20.00
2017-08-21T08:28:04.152Z,20.00
2017-08-21T08:30:31.675Z,20.00
2017-08-21T08:32:59.209Z,20.00
2017-08-21T08:35:26.786Z,20.00
2017-08-21T08:37:54.315Z,20.00
2017-08-21T08:40:22.341Z,20.00
2017-08-21T08:42:49.881Z,20.00
2017-08-21T08:45:17.464Z,20.10
2017-08-21T08:47:45.030Z,20.20
2017-08-21T08:50:12.590Z,20.30
2017-08-21T08:52:40.497Z,20.40
2017-08-21T08:55:08.042Z,20.50
2017-08-21T08:57:35.594Z,20.50
2017-08-21T09:00:03.163Z,20.50
2017-08-21T09:02:30.712Z,20.50
2017-08-21T09:04:58.284Z,20.60
2017-08-21T09:07:25.801Z,20.80
2017-08-21T09:09:53.326Z,20.90
2017-08-21T09:12:20.904Z,20.90
2017-08-21T09:14:48.471Z,21.00
2017-08-21T09:17:17.248Z,21.00
2017-08-21T09:19:44.781Z,21.00
2017-08-21T09:22:12.302Z,21.00
2017-08-21T09:24:40.790Z,21.10
2017-08-21T09:27:08.334Z,21.20
2017-08-21T09:29:36.668Z,21.20
2017-08-21T09:32:04.183Z,21.20
2017-08-21T09:34:31.728Z,21.20
2017-08-21T09:36:59.299Z,21.20
2017-08-21T09:39:26.831Z,21.30
2017-08-21T09:41:54.693Z,21.50
2017-08-21T09:44:22.294Z,21.50
2017-08-21T09:46:49.867Z,21.60
2017-08-21T09:49:17.425Z,21.70
2017-08-21T09:51:44.959Z,21.70
2017-08-21T09:54:12.543Z,21.70
2017-08-21T09:56:40.121Z,21.60
2017-08-21T09:59:07.669Z,21.70
2017-08-21T10:01:35.223Z,21.70
2017-08-21T10:05:02.761Z,21.80
2017-08-21T10:07:30.701Z,21.80
2017-08-21T10:09:58.237Z,21.80
2017-08-21T10:12:25.770Z,21.80
2017-08-21T10:14:53.356Z,21.80
2017-08-21T10:17:20.889Z,21.80
2017-08-21T10:19:48.449Z,22.00
2017-08-21T10:22:15.988Z,22.10
2017-08-21T10:24:43.532Z,22.10
2017-08-21T10:27:11.080Z,21.90
2017-08-21T10:29:38.633Z,21.70
2017-08-21T10:32:07.409Z,21.60
2017-08-21T10:34:34.973Z,21.60
2017-08-21T10:37:02.502Z,21.60
2017-08-21T10:39:30.054Z,21.60
2017-08-21T10:41:57.577Z,21.70
2017-08-21T10:44:25.436Z,21.80
2017-08-21T10:46:52.968Z,21.90
2017-08-21T10:49:20.505Z,21.90
2017-08-21T10:51:48.057Z,22.00
2017-08-21T10:54:15.586Z,22.00
2017-08-21T10:56:43.456Z,22.10
2017-08-21T10:59:10.985Z,22.10
2017-08-21T11:01:38.500Z,22.10
2017-08-21T11:04:06.063Z,22.20
2017-08-21T11:06:33.617Z,22.20
2017-08-21T11:09:01.643Z,22.00
2017-08-21T11:11:29.188Z,22.10
2017-08-21T11:13:56.744Z,22.10
2017-08-21T11:16:24.291Z,22.20
2017-08-21T11:18:51.846Z,22.20
2017-08-21T11:21:19.747Z,22.40
2017-08-21T11:23:47.289Z,22.70
2017-08-21T11:26:14.834Z,23.00
2017-08-21T11:28:42.388Z,23.30
2017-08-21T11:31:09.947Z,23.50
2017-08-21T11:33:37.515Z,23.70
2017-08-21T11:36:05.064Z,23.70
2017-08-21T11:38:32.611Z,23.50
2017-08-21T11:41:00.166Z,23.20
2017-08-21T11:43:27.751Z,23.00
2017-08-21T11:45:55.355Z,22.80
2017-08-21T11:48:22.897Z,22.70
2017-08-21T11:50:50.433Z,22.60
2017-08-21T11:53:18.002Z,22.80
2017-08-21T11:55:45.591Z,23.20
2017-08-21T11:58:13.488Z,23.60
2017-08-21T12:00:41.025Z,24.30
2017-08-21T12:03:08.589Z,25.20
2017-08-21T12:05:36.157Z,25.60
2017-08-21T12:08:03.703Z,26.40
2017-08-21T12:10:31.530Z,27.30
2017-08-21T12:12:59.074Z,28.00
2017-08-21T12:15:26.638Z,28.70
2017-08-21T12:17:54.212Z,29.50
2017-08-21T12:20:21.740Z,30.50
2017-08-21T12:22:49.338Z,31.60
2017-08-21T12:25:16.854Z,31.80
2017-08-21T12:27:44.386Z,31.90
2017-08-21T12:30:11.936Z,31.70
2017-08-21T12:32:39.465Z,31.50
2017-08-21T12:35:07.030Z,31.70
2017-08-21T12:37:34.595Z,31.80
2017-08-21T12:40:02.190Z,31.50
2017-08-21T12:42:29.754Z,30.90
2017-08-21T12:44:57.280Z,30.20
2017-08-21T12:47:24.896Z,29.60
2017-08-21T12:49:52.424Z,28.90
2017-08-21T12:52:19.994Z,28.10
2017-08-21T12:54:47.609Z,27.30
2017-08-21T12:57:15.143Z,26.60
2017-08-21T12:59:43.191Z,26.00
2017-08-21T13:02:11.141Z,25.40
2017-08-21T13:04:38.699Z,24.90
2017-08-21T13:07:06.451Z,24.40
2017-08-21T13:09:34.001Z,23.90
2017-08-21T13:12:01.580Z,23.60
2017-08-21T13:14:29.148Z,23.60
2017-08-21T13:16:56.705Z,23.70
2017-08-21T13:19:24.298Z,23.80
2017-08-21T13:21:51.809Z,24.00
2017-08-21T13:24:19.445Z,24.40
2017-08-21T13:26:47.003Z,24.90
2017-08-21T13:29:14.551Z,25.20
2017-08-21T13:31:42.129Z,25.20
2017-08-21T13:34:09.678Z,25.00
2017-08-21T13:36:37.249Z,24.70
2017-08-21T13:39:05.093Z,24.30
2017-08-21T13:41:32.640Z,24.10
2017-08-21T13:44:00.206Z,23.80
2017-08-21T13:46:27.815Z,23.80
2017-08-21T13:48:55.706Z,24.00
2017-08-21T13:51:26.859Z,24.30
2017-08-21T13:53:54.417Z,24.60
2017-08-21T13:56:22.008Z,24.80
2017-08-21T13:58:49.543Z,25.40
2017-08-21T14:01:17.461Z,26.50
2017-08-21T14:03:44.998Z,27.50
2017-08-21T14:06:14.225Z,28.20
2017-08-21T14:08:41.936Z,29.00
2017-08-21T14:11:15.715Z,29.70
2017-08-21T14:13:43.536Z,30.40
2017-08-21T14:16:11.090Z,30.60
2017-08-21T14:18:38.624Z,30.20
2017-08-21T14:21:06.198Z,30.20
2017-08-21T14:23:33.754Z,30.50
2017-08-21T14:26:13.734Z,31.00
2017-08-21T14:28:41.444Z,31.10
2017-08-21T14:31:08.985Z,30.40
2017-08-21T14:33:36.546Z,29.80
2017-08-21T14:36:04.101Z,29.90
2017-08-21T14:38:31.963Z,30.40
2017-08-21T14:40:59.502Z,31.00
2017-08-21T14:43:27.026Z,31.50
2017-08-21T14:45:54.597Z,32.00
2017-08-21T14:48:22.167Z,32.30
2017-08-21T14:50:49.968Z,32.30
2017-08-21T14:53:17.516Z,31.50
2017-08-21T14:55:46.694Z,30.60
2017-08-21T14:58:14.960Z,30.20
2017-08-21T15:00:43.211Z,29.70
2017-08-21T15:03:10.790Z,29.30
2017-08-21T15:05:40.254Z,29.50
2017-08-21T15:08:07.880Z,30.00
2017-08-21T15:10:35.458Z,30.50
2017-08-21T15:13:03.005Z,30.80
2017-08-21T15:15:31.075Z,31.50
2017-08-21T15:17:58.633Z,32.10
2017-08-21T15:20:27.284Z,32.10
2017-08-21T15:22:54.884Z,32.30
2017-08-21T15:25:22.488Z,32.30
2017-08-21T15:27:51.145Z,31.80
2017-08-21T15:30:18.703Z,31.80
2017-08-21T15:32:46.229Z,31.60
2017-08-21T15:35:13.830Z,31.50
2017-08-21T15:37:41.388Z,31.40
2017-08-21T15:40:08.966Z,31.10
2017-08-21T15:42:36.504Z,30.90
2017-08-21T15:45:04.031Z,30.70
2017-08-21T15:47:31.582Z,30.60
2017-08-21T15:49:59.133Z,30.70
2017-08-21T15:52:26.713Z,30.90
2017-08-21T15:54:54.269Z,31.00
2017-08-21T15:57:21.828Z,30.90
2017-08-21T15:59:49.392Z,30.70
2017-08-21T16:02:16.968Z,30.30
2017-08-21T16:04:44.547Z,29.80
2017-08-21T16:07:12.086Z,29.60
2017-08-21T16:09:39.629Z,29.30
2017-08-21T16:12:12.841Z,29.00
2017-08-21T16:14:40.416Z,28.50
2017-08-21T16:17:08.315Z,28.00
2017-08-21T16:19:35.838Z,27.70
2017-08-21T16:22:03.396Z,27.40
2017-08-21T16:24:31.868Z,27.10
2017-08-21T16:26:59.415Z,26.60
2017-08-21T16:29:30.199Z,26.20
2017-08-21T16:32:02.853Z,25.90
2017-08-21T16:34:35.820Z,25.50
2017-08-21T16:37:04.289Z,25.20
2017-08-21T16:39:31.861Z,25.00
2017-08-21T16:42:00.348Z,24.80
2017-08-21T16:44:27.884Z,24.60
2017-08-21T16:46:55.516Z,24.30
2017-08-21T16:49:23.079Z,24.10
2017-08-21T16:51:50.612Z,24.00
2017-08-21T16:54:18.184Z,23.80
2017-08-21T16:56:45.788Z,23.70
2017-08-21T16:59:13.384Z,23.60
2017-08-21T17:01:40.948Z,23.50
2017-08-21T17:04:08.502Z,23.40
2017-08-21T17:06:36.089Z,23.20
2017-08-21T17:09:03.647Z,23.10
2017-08-21T17:11:31.473Z,23.00
2017-08-21T17:13:59.011Z,22.80
2017-08-21T17:16:26.572Z,22.70
2017-08-21T17:18:56.030Z,22.70
2017-08-21T17:21:23.547Z,22.60
2017-08-21T17:23:51.410Z,22.40
2017-08-21T17:26:18.960Z,22.30
2017-08-21T17:28:46.502Z,22.30
2017-08-21T17:31:14.081Z,22.20
2017-08-21T17:33:41.618Z,22.20
2017-08-21T17:36:09.543Z,22.20
2017-08-21T17:38:37.093Z,22.20
2017-08-21T17:41:04.618Z,22.10
2017-08-21T17:43:36.975Z,22.10
2017-08-21T17:46:04.506Z,22.00
2017-08-21T17:48:32.354Z,22.00
2017-08-21T17:50:59.931Z,21.90
2017-08-21T17:53:27.586Z,21.80
2017-08-21T17:55:55.212Z,21.80
2017-08-21T17:58:22.797Z,21.70
2017-08-21T18:00:50.417Z,21.70
2017-08-21T18:03:19.952Z,21.60
2017-08-21T18:05:47.503Z,21.50
2017-08-21T18:08:15.075Z,21.40
2017-08-21T18:10:42.608Z,21.30
2017-08-21T18:13:10.185Z,21.20
2017-08-21T18:15:37.745Z,21.10
2017-08-21T18:18:05.275Z,21.10
2017-08-21T18:20:32.861Z,20.90
2017-08-21T18:23:00.411Z,20.90
2017-08-21T18:25:28.259Z,20.80
2017-08-21T18:27:55.815Z,20.80
2017-08-21T18:30:23.396Z,20.60
2017-08-21T18:32:50.962Z,20.60
2017-08-21T18:35:18.532Z,20.50
2017-08-21T18:37:46.156Z,20.50
2017-08-21T18:40:18.440Z,20.40
2017-08-21T18:42:46.345Z,20.40
2017-08-21T18:45:13.943Z,20.40
2017-08-21T18:47:41.527Z,20.30
2017-08-21T18:50:09.152Z,20.30
2017-08-21T18:52:36.693Z,20.20
2017-08-21T18:55:04.519Z,20.20
2017-08-21T18:57:32.072Z,20.20
2017-08-21T18:59:59.638Z,20.20
2017-08-21T19:02:27.253Z,20.20
2017-08-21T19:04:54.872Z,20.20
2017-08-21T19:07:26.385Z,20.20
2017-08-21T19:09:53.940Z,20.20
2017-08-21T19:12:21.518Z,20.20
2017-08-21T19:14:49.126Z,20.20
2017-08-21T19:17:16.709Z,20.20
2017-08-21T19:19:44.558Z,20.10
2017-08-21T19:22:12.118Z,20.10
2017-08-21T19:24:39.653Z,20.10
2017-08-21T19:27:07.295Z,20.10
2017-08-21T19:29:35.788Z,20.00
2017-08-21T19:32:03.636Z,20.00
2017-08-21T19:34:31.238Z,20.00
2017-08-21T19:36:58.859Z,20.00
2017-08-21T19:39:26.516Z,20.00
2017-08-21T19:41:54.096Z,19.90
2017-08-21T19:44:21.955Z,19.90
2017-08-21T19:46:49.532Z,19.90
2017-08-21T19:49:17.100Z,19.90
2017-08-21T19:51:44.665Z,19.80
2017-08-21T19:54:12.337Z,19.90
2017-08-21T19:56:40.253Z,19.80
2017-08-21T19:59:07.821Z,19.80
2017-08-21T20:01:35.376Z,19.80
2017-08-21T20:04:03.017Z,19.80
2017-08-21T20:06:30.617Z,19.70
2017-08-21T20:08:58.591Z,19.70
2017-08-21T20:11:26.154Z,19.70
2017-08-21T20:13:53.729Z,19.70
2017-08-21T20:16:21.370Z,19.70
2017-08-21T20:18:48.979Z,19.60
2017-08-21T20:21:17.006Z,19.60
2017-08-21T20:23:44.608Z,19.60
2017-08-21T20:26:12.151Z,19.60
2017-08-21T20:28:39.744Z,19.60
2017-08-21T20:31:07.276Z,19.60
2017-08-21T20:33:35.154Z,19.60
2017-08-21T20:36:10.854Z,19.60
2017-08-21T20:38:38.720Z,19.60
2017-08-21T20:41:06.267Z,19.60
2017-08-21T20:43:33.928Z,19.60
2017-08-21T20:46:01.569Z,19.50
2017-08-21T20:48:29.116Z,19.50
2017-08-21T20:50:57.174Z,19.50
2017-08-21T20:53:24.721Z,19.50
2017-08-21T20:55:52.270Z,19.50
2017-08-21T20:58:19.849Z,19.50
2017-08-21T21:00:47.426Z,19.40
2017-08-21T21:03:15.286Z,19.40
2017-08-21T21:05:42.838Z,19.40
2017-08-21T21:08:10.405Z,19.30
2017-08-21T21:10:37.979Z,19.30
2017-08-21T21:13:05.535Z,19.30
2017-08-21T21:15:33.401Z,19.20
2017-08-21T21:18:00.942Z,19.20
2017-08-21T21:20:28.471Z,19.10
2017-08-21T21:22:56.052Z,19.10
2017-08-21T21:25:23.635Z,19.00
2017-08-21T21:27:51.418Z,19.00
2017-08-21T21:30:18.969Z,18.90
2017-08-21T21:32:46.529Z,18.90
2017-08-21T21:35:14.179Z,18.90
2017-08-21T21:37:41.746Z,18.80
2017-08-21T21:40:09.653Z,18.70
2017-08-21T21:42:37.217Z,18.70
2017-08-21T21:45:04.775Z,18.60
2017-08-21T21:47:32.320Z,18.50
2017-08-21T21:49:59.902Z,18.50
2017-08-21T21:52:27.741Z,18.40
2017-08-21T21:54:55.286Z,18.40
2017-08-21T21:57:22.839Z,18.30
2017-08-21T21:59:50.423Z,18.20
2017-08-21T22:02:17.967Z,18.20
2017-08-21T22:04:45.915Z,18.10
2017-08-21T22:07:13.478Z,18.00
2017-08-21T22:09:41.033Z,18.00
2017-08-21T22:12:08.607Z,17.90
2017-08-21T22:14:36.178Z,17.80
2017-08-21T22:17:04.137Z,17.80
2017-08-21T22:19:31.700Z,17.70
2017-08-21T22:21:59.287Z,17.70
2017-08-21T22:24:26.879Z,17.60
2017-08-21T22:26:54.509Z,17.60
2017-08-21T22:29:22.390Z,17.50
2017-08-21T22:31:51.108Z,17.30
2017-08-21T22:34:18.651Z,17.40
2017-08-21T22:36:46.216Z,17.40
2017-08-21T22:39:13.757Z,17.40
2017-08-21T22:41:41.602Z,17.30
2017-08-21T22:44:09.134Z,17.30
2017-08-21T22:46:36.686Z,17.30
2017-08-21T22:49:04.251Z,17.20
2017-08-21T22:51:31.795Z,17.20
2017-08-21T22:53:59.645Z,17.20
2017-08-21T22:56:27.194Z,17.10
2017-08-21T22:58:54.769Z,17.10
2017-08-21T23:01:22.332Z,17.10
2017-08-21T23:03:49.867Z,17.00
2017-08-21T23:06:17.429Z,17.00
2017-08-21T23:08:44.964Z,16.90
2017-08-21T23:11:12.803Z,16.90
2017-08-21T23:13:40.337Z,16.90
2017-08-21T23:16:07.853Z,16.80
2017-08-21T23:18:35.416Z,16.80
2017-08-21T23:21:02.996Z,16.70
2017-08-21T23:23:30.803Z,16.70
2017-08-21T23:25:58.330Z,16.60
2017-08-21T23:28:25.861Z,16.60
2017-08-21T23:30:53.476Z,16.60
2017-08-21T23:33:21.018Z,16.50
2017-08-21T23:35:48.877Z,16.50
2017-08-21T23:38:16.414Z,16.40
2017-08-21T23:40:43.950Z,16.40
2017-08-21T23:43:11.509Z,16.40
2017-08-21T23:45:39.049Z,16.30
2017-08-21T23:48:06.886Z,16.30
2017-08-21T23:50:34.413Z,16.20
2017-08-21T23:53:01.947Z,16.20
2017-08-21T23:55:29.547Z,16.10
2017-08-21T23:57:57.131Z,16.10
